Time;durP1;ratioP1;P1;durP2;ratioP2;P2;SDS_P1;SDS_P2;PMS_P1;PMS_P2;Temp;Humidity;BMP_temperature;BMP_pressure;BME280_temperature;BME280_humidity;BME280_pressure;Samples;Min_cycle;Max_cycle;Signal;HPM_P1;HPM_P2
2021/12/09 00:00:43;;;;;;;;;;;;;;;0.55;100.00;100148.00;5052667;28;20044;-71
2021/12/09 00:03:11;;;;;;;17.70;6.65;;;;;;;0.48;100.00;100148.34;5052595;28;20042;-72
2021/12/09 00:05:38;;;;;;;16.45;6.35;;;;;;;0.43;100.00;100144.31;5051956;28;20025;-72
2021/12/09 00:08:05;;;;;;;25.58;7.18;;;;;;;0.38;100.00;100144.59;5052758;28;20509;-72
2021/12/09 00:10:31;;;;;;;17.25;6.85;;;;;;;0.37;100.00;100156.00;5052112;28;20112;-72
2021/12/09 00:12:57;;;;;;;23.05;7.68;;;;;;;0.42;100.00;100163.56;5052501;28;20124;-73
2021/12/09 00:15:22;;;;;;;17.42;7.22;;;;;;;0.43;100.00;100167.88;5052535;28;20037;-71
2021/12/09 00:17:48;;;;;;;22.13;6.93;;;;;;;0.40;100.00;100163.66;5051740;28;20473;-72
2021/12/09 00:20:13;;;;;;;14.15;6.38;;;;;;;0.32;100.00;100158.88;5034563;28;20036;-71
2021/12/09 00:22:39;;;;;;;18.10;7.47;;;;;;;0.30;100.00;100157.28;5052001;28;20472;-72
2021/12/09 00:25:05;;;;;;;18.33;7.07;;;;;;;0.27;100.00;100154.84;5052345;28;20110;-71
2021/12/09 00:27:31;;;;;;;21.27;7.78;;;;;;;0.25;100.00;100154.94;5051798;28;20064;-71
2021/12/09 00:29:56;;;;;;;27.77;7.80;;;;;;;0.22;100.00;100156.91;5052302;28;20060;-71
2021/12/09 00:32:22;;;;;;;15.30;6.75;;;;;;;0.18;100.00;100153.63;5051958;28;20451;-71
2021/12/09 00:34:49;;;;;;;20.45;7.45;;;;;;;0.10;100.00;100155.84;5051821;28;20043;-71
2021/12/09 00:37:21;;;;;;;19.17;7.93;;;;;;;0.03;100.00;100157.97;5052310;28;20033;-71
2021/12/09 00:39:51;;;;;;;26.60;8.70;;;;;;;0.01;100.00;100156.38;5051669;28;20038;-71
2021/12/09 00:42:19;;;;;;;19.17;8.77;;;;;;;-0.03;100.00;100155.69;5052339;28;20477;-71
2021/12/09 00:44:44;;;;;;;30.83;9.35;;;;;;;-0.01;100.00;100159.91;5051299;28;20029;-72
2021/12/09 00:47:10;;;;;;;23.40;8.93;;;;;;;-0.04;100.00;100157.47;5052005;28;20033;-71
2021/12/09 00:49:35;;;;;;;27.30;9.32;;;;;;;-0.07;100.00;100165.50;5051343;28;20057;-72
2021/12/09 00:52:01;;;;;;;35.40;11.18;;;;;;;-0.10;100.00;100165.66;5051841;28;20033;-71
2021/12/09 00:54:27;;;;;;;26.98;11.20;;;;;;;-0.04;100.00;100165.31;5052059;28;20392;-71
2021/12/09 00:56:53;;;;;;;35.75;10.90;;;;;;;-0.03;100.00;100168.75;5050299;28;20021;-72
2021/12/09 00:59:19;;;;;;;38.72;10.68;;;;;;;0.01;100.00;100159.00;5051885;28;20388;-71
2021/12/09 01:01:45;;;;;;;36.95;10.95;;;;;;;0.01;100.00;100161.59;5051053;28;20068;-72
2021/12/09 01:04:11;;;;;;;32.75;10.40;;;;;;;0.01;100.00;100159.00;5051729;28;20036;-71
2021/12/09 01:06:36;;;;;;;39.42;12.05;;;;;;;0.02;100.00;100156.28;5051103;28;20033;-71
2021/12/09 01:09:03;;;;;;;36.00;11.57;;;;;;;0.03;100.00;100159.72;5051451;28;20393;-71
2021/12/09 01:11:29;;;;;;;35.78;11.68;;;;;;;0.03;100.00;100162.34;5034122;28;20040;-71
2021/12/09 01:13:54;;;;;;;43.45;11.77;;;;;;;0.05;100.00;100160.50;5050678;28;20056;-72
2021/12/09 01:16:20;;;;;;;54.35;13.35;;;;;;;0.02;100.00;100160.69;5051279;28;20033;-71
2021/12/09 01:18:45;;;;;;;47.38;12.55;;;;;;;0.01;100.00;100161.59;5051154;28;20065;-72
2021/12/09 01:21:11;;;;;;;44.78;11.55;;;;;;;0.01;100.00;100165.06;5051471;28;20485;-72
2021/12/09 01:23:38;;;;;;;39.10;11.25;;;;;;;0.08;100.00;100173.41;5051015;28;20029;-77
2021/12/09 01:26:06;;;;;;;44.35;11.13;;;;;;;0.04;100.00;100164.88;5051418;28;20470;-72
2021/12/09 01:28:41;;;;;;;34.08;11.05;;;;;;;0.03;100.00;100160.59;5051506;28;20108;-72
2021/12/09 01:31:07;;;;;;;43.55;11.07;;;;;;;-0.03;100.00;100151.31;5052899;28;20036;-72
2021/12/09 01:33:35;;;;;;;36.50;11.15;;;;;;;-0.07;100.00;100160.25;5037908;28;20037;-72
2021/12/09 01:36:03;;;;;;;44.05;12.80;;;;;;;-0.10;100.00;100157.00;5055160;28;20033;-72
2021/12/09 01:38:31;;;;;;;46.45;11.77;;;;;;;-0.10;100.00;100155.22;5055108;28;20044;-72
2021/12/09 01:40:57;;;;;;;33.53;11.35;;;;;;;-0.12;100.00;100161.44;5054821;28;20036;-72
2021/12/09 01:43:23;;;;;;;52.90;13.23;;;;;;;-0.09;100.00;100166.50;5055330;28;20093;-72
2021/12/09 01:46:00;;;;;;;45.83;12.30;;;;;;;0.02;100.00;100166.75;5054745;28;20033;-72
2021/12/09 01:48:25;;;;;;;39.17;10.93;;;;;;;0.07;100.00;100171.72;5055464;28;20121;-72
2021/12/09 01:50:50;;;;;;;38.50;10.23;;;;;;;0.03;100.00;100175.44;5054689;28;20033;-73
2021/12/09 01:53:16;;;;;;;39.28;11.38;;;;;;;-0.01;100.00;100170.38;5055408;28;20025;-72
2021/12/09 01:55:41;;;;;;;39.42;10.15;;;;;;;-0.01;100.00;100174.78;5054771;28;20478;-78
2021/12/09 01:58:07;;;;;;;41.97;9.95;;;;;;;-0.01;100.00;100180.00;5054923;28;20029;-72
2021/12/09 02:00:37;;;;;;;43.10;9.88;;;;;;;-0.04;100.00;100182.78;5055363;28;20381;-72
2021/12/09 02:03:03;;;;;;;44.72;11.00;;;;;;;-0.04;100.00;100182.78;5054584;28;20033;-72
2021/12/09 02:05:28;;;;;;;44.75;9.75;;;;;;;-0.05;100.00;100184.53;5055051;28;20055;-72
2021/12/09 02:10:25;;;;;;;36.10;9.18;;;;;;;-0.17;100.00;100180.03;4993911;28;20060;-72
2021/12/09 02:12:51;;;;;;;32.13;9.57;;;;;;;-0.26;100.00;100178.75;4994755;28;20061;-72
2021/12/09 02:15:20;;;;;;;31.80;8.80;;;;;;;-0.33;100.00;100177.41;4996106;28;20034;-72
2021/12/09 02:17:46;;;;;;;39.28;9.07;;;;;;;-0.38;100.00;100176.84;4995105;28;20042;-74
2021/12/09 02:20:12;;;;;;;37.50;8.73;;;;;;;-0.44;100.00;100178.00;4995391;28;20034;-72
2021/12/09 02:22:38;;;;;;;41.28;9.90;;;;;;;-0.45;100.00;100181.56;4977948;28;20034;-72
2021/12/09 02:25:04;;;;;;;29.30;9.18;;;;;;;-0.49;100.00;100185.28;4994696;28;20054;-72
2021/12/09 02:27:30;;;;;;;55.88;11.48;;;;;;;-0.47;100.00;100179.97;4995356;28;20038;-72
2021/12/09 02:29:56;;;;;;;43.83;9.57;;;;;;;-0.36;100.00;100169.75;4994780;28;20538;-72
2021/12/09 02:32:22;;;;;;;37.75;9.13;;;;;;;-0.31;100.00;100172.97;4995158;28;20026;-70
2021/12/09 02:34:48;;;;;;;41.35;10.07;;;;;;;-0.23;100.00;100177.75;4994835;28;20038;-76
2021/12/09 02:37:14;;;;;;;44.72;9.27;;;;;;;-0.21;100.00;100173.25;4994974;28;20395;-71
2021/12/09 02:39:41;;;;;;;44.72;9.10;;;;;;;-0.22;100.00;100174.22;4995053;28;20046;-71
2021/12/09 02:42:07;;;;;;;38.75;8.57;;;;;;;-0.30;100.00;100169.44;4994237;28;20030;-71
2021/12/09 02:44:32;;;;;;;29.60;8.80;;;;;;;-0.32;100.00;100179.09;4995052;28;20129;-71
2021/12/09 02:46:58;;;;;;;37.30;8.88;;;;;;;-0.32;100.00;100173.88;4976535;28;20495;-71
2021/12/09 02:49:27;;;;;;;34.03;8.10;;;;;;;-0.33;100.00;100166.94;4994954;28;20030;-71
2021/12/09 02:51:53;;;;;;;27.67;8.38;;;;;;;-0.29;100.00;100165.88;4994103;28;20070;-72
2021/12/09 02:54:21;;;;;;;27.73;7.30;;;;;;;-0.31;100.00;100172.97;4994524;28;20464;-72
2021/12/09 02:56:49;;;;;;;33.47;9.25;;;;;;;-0.37;100.00;100168.91;4994608;28;20718;-72
2021/12/09 02:59:15;;;;;;;30.50;7.93;;;;;;;-0.41;100.00;100175.22;4994367;28;20041;-72
2021/12/09 03:01:56;;;;;;;28.75;8.25;;;;;;;-0.44;100.00;100164.13;4994335;28;20109;-72
2021/12/09 03:04:22;;;;;;;28.90;7.88;;;;;;;-0.52;100.00;100164.53;4994831;28;20030;-72
2021/12/09 03:06:50;;;;;;;34.00;7.80;;;;;;;-0.59;100.00;100171.84;4994151;28;20038;-72
2021/12/09 03:09:18;;;;;;;41.33;10.10;;;;;;;-0.60;100.00;100174.56;4993654;28;20062;-72
2021/12/09 03:11:48;;;;;;;31.15;7.88;;;;;;;-0.60;100.00;100170.19;4977220;28;20077;-72
2021/12/09 03:14:13;;;;;;;32.72;10.40;;;;;;;-0.56;100.00;100176.09;4993650;28;20034;-71
2021/12/09 03:16:39;;;;;;;31.83;9.40;;;;;;;-0.54;100.00;100169.84;4994633;28;20041;-72
2021/12/09 03:19:07;;;;;;;31.23;8.88;;;;;;;-0.54;100.00;100164.63;4975930;28;20529;-72
2021/12/09 03:21:45;;;;;;;40.85;10.38;;;;;;;-0.46;100.00;100166.81;4994066;28;20045;-72
2021/12/09 03:24:17;;;;;;;38.78;10.65;;;;;;;-0.36;100.00;100156.66;4993510;28;20202;-71
2021/12/09 03:26:55;;;;;;;33.95;9.52;;;;;;;-0.24;100.00;100169.06;4991326;28;20137;-72
2021/12/09 03:29:22;;;;;;;44.55;10.93;;;;;;;-0.10;100.00;100168.28;4993708;28;20036;-72
2021/12/09 03:31:50;;;;;;;40.25;9.75;;;;;;;-0.03;100.00;100166.16;4993817;28;20045;-72
2021/12/09 03:34:18;;;;;;;32.80;9.57;;;;;;;0.12;100.00;100167.91;4993019;28;20041;-72
2021/12/09 03:36:45;;;;;;;39.50;9.82;;;;;;;0.15;100.00;100180.81;4994165;28;20081;-72
2021/12/09 03:39:16;;;;;;;37.80;8.82;;;;;;;0.27;100.00;100176.63;4993224;28;20105;-72
2021/12/09 03:41:42;;;;;;;34.67;8.82;;;;;;;0.39;100.00;100176.84;4993921;28;20044;-72
2021/12/09 03:44:07;;;;;;;31.48;8.13;;;;;;;0.43;100.00;100181.81;4993295;28;20042;-72
2021/12/09 03:46:33;;;;;;;36.90;8.32;;;;;;;0.52;100.00;100177.81;4993749;28;20069;-72
2021/12/09 03:48:59;;;;;;;35.63;8.23;;;;;;;0.56;100.00;100171.47;4993357;28;20034;-76
2021/12/09 03:51:24;;;;;;;36.25;9.25;;;;;;;0.59;100.00;100175.69;4976100;28;20121;-72
2021/12/09 03:53:51;;;;;;;25.00;7.53;;;;;;;0.57;100.00;100177.53;4993501;28;20121;-74
2021/12/09 03:56:17;;;;;;;28.75;6.70;;;;;;;0.56;100.00;100178.47;4993489;28;20478;-72
2021/12/09 03:58:42;;;;;;;20.60;7.10;;;;;;;0.59;100.00;100183.53;4993618;28;20022;-73
2021/12/09 04:01:07;;;;;;;24.50;6.68;;;;;;;0.59;100.00;100189.59;4992733;28;20490;-73
2021/12/09 04:03:33;;;;;;;25.00;6.97;;;;;;;0.60;100.00;100185.19;4993300;28;20443;-73
2021/12/09 04:05:58;;;;;;;26.50;7.30;;;;;;;0.53;100.00;100187.34;4993417;28;20041;-72
2021/12/09 04:08:24;;;;;;;29.95;8.00;;;;;;;0.52;100.00;100194.38;4992669;28;20058;-73
2021/12/09 04:10:50;;;;;;;31.65;7.63;;;;;;;0.49;100.00;100194.56;4993400;28;20111;-72
2021/12/09 04:13:16;;;;;;;23.33;6.43;;;;;;;0.50;100.00;100192.78;4992603;28;20541;-72
2021/12/09 04:15:42;;;;;;;24.10;6.53;;;;;;;0.44;100.00;100196.59;4993267;28;20034;-72
2021/12/09 04:18:09;;;;;;;34.60;6.72;;;;;;;0.45;100.00;100195.66;4992430;28;20037;-73
2021/12/09 04:20:34;;;;;;;34.92;7.25;;;;;;;0.48;100.00;100181.56;4993139;28;20046;-72
2021/12/09 04:23:00;;;;;;;25.98;6.55;;;;;;;0.51;100.00;100176.13;4993272;28;20038;-72
2021/12/09 04:25:26;;;;;;;20.80;6.55;;;;;;;0.55;100.00;100176.78;4992511;28;20033;-72
2021/12/09 04:27:53;;;;;;;26.83;6.18;;;;;;;0.54;100.00;100181.19;4993447;28;20117;-72
2021/12/09 04:30:19;;;;;;;25.33;5.75;;;;;;;0.55;100.00;100184.63;4992281;28;20046;-72
2021/12/09 04:32:46;;;;;;;24.13;5.40;;;;;;;0.50;100.00;100188.38;4992571;28;20035;-72
2021/12/09 04:35:12;;;;;;;29.00;6.15;;;;;;;0.49;100.00;100188.47;4992203;28;20153;-73
2021/12/09 04:37:38;;;;;;;25.77;6.28;;;;;;;0.47;100.00;100201.63;4992931;28;20033;-72
2021/12/09 04:40:09;;;;;;;30.10;6.35;;;;;;;0.45;100.00;100202.66;4992953;28;20030;-72
2021/12/09 04:42:35;;;;;;;24.35;6.80;;;;;;;0.52;100.00;100204.84;4992801;28;20026;-72
2021/12/09 04:45:01;;;;;;;18.45;5.88;;;;;;;0.47;100.00;100206.88;4992848;28;20433;-72
2021/12/09 04:47:27;;;;;;;36.55;6.85;;;;;;;0.49;100.00;100210.25;4992010;28;20108;-72
2021/12/09 04:49:52;;;;;;;23.60;6.90;;;;;;;0.49;100.00;100210.25;4992788;28;20030;-72
2021/12/09 04:52:18;;;;;;;23.30;5.40;;;;;;;0.46;100.00;100218.28;4992610;28;20026;-72
2021/12/09 04:54:43;;;;;;;19.02;5.43;;;;;;;0.43;100.00;100217.63;4992538;28;20196;-72
2021/12/09 04:57:10;;;;;;;26.63;6.93;;;;;;;0.42;100.00;100223.78;4992433;28;20483;-76
2021/12/09 04:59:36;;;;;;;20.90;6.05;;;;;;;0.45;100.00;100221.84;4992196;28;20035;-71
2021/12/09 05:02:02;;;;;;;29.42;5.85;;;;;;;0.48;100.00;100219.03;4992319;28;20034;-72
2021/12/09 05:04:28;;;;;;;21.23;5.60;;;;;;;0.52;100.00;100220.56;4992002;28;20129;-72
2021/12/09 05:06:54;;;;;;;19.40;5.68;;;;;;;0.55;100.00;100221.28;4991738;28;20038;-72
2021/12/09 05:09:19;;;;;;;21.85;5.97;;;;;;;0.58;100.00;100213.25;4991634;28;20466;-72
2021/12/09 05:14:11;;;;;;;25.88;5.65;;;;;;;0.60;100.00;100230.56;4992332;28;20487;-78
2021/12/09 05:16:37;;;;;;;25.65;5.82;;;;;;;0.63;100.00;100232.19;4991929;28;20057;-71
2021/12/09 05:19:03;;;;;;;22.20;5.80;;;;;;;0.56;100.00;100230.84;4992469;28;20382;-72
2021/12/09 05:21:37;;;;;;;25.58;5.15;;;;;;;0.53;100.00;100229.25;4991756;28;20030;-72
2021/12/09 05:24:04;;;;;;;24.90;5.43;;;;;;;0.50;100.00;100232.88;4992416;28;20057;-72
2021/12/09 05:26:35;;;;;;;26.40;5.63;;;;;;;0.51;100.00;100231.13;4991621;28;20057;-72
2021/12/09 05:29:01;;;;;;;;;;;;;;;0.56;100.00;100229.06;4975320;28;20069;-71
2021/12/09 05:34:13;;;;;;;21.13;5.28;;;;;;;0.58;100.00;100228.97;4992336;28;20105;-72
2021/12/09 05:36:38;;;;;;;27.40;5.70;;;;;;;0.59;100.00;100217.56;4991571;28;20359;-72
2021/12/09 05:39:08;;;;;;;25.08;5.57;;;;;;;0.60;100.00;100212.25;4992152;28;20041;-71
2021/12/09 05:41:33;;;;;;;29.27;6.00;;;;;;;0.63;100.00;100216.47;4991463;28;20030;-71
2021/12/09 05:44:00;;;;;;;23.98;6.65;;;;;;;0.62;100.00;100220.84;4992079;28;20142;-72
2021/12/09 05:46:26;;;;;;;25.42;5.88;;;;;;;0.66;100.00;100229.38;4991586;28;20093;-72
2021/12/09 05:48:52;;;;;;;24.23;6.35;;;;;;;0.64;100.00;100232.09;4992157;28;20466;-71
2021/12/09 05:51:18;;;;;;;26.08;6.72;;;;;;;0.63;100.00;100240.03;4992013;28;20065;-72
2021/12/09 05:53:43;;;;;;;26.67;4.82;;;;;;;0.62;100.00;100236.53;4991377;28;20030;-71
2021/12/09 05:56:08;;;;;;;21.67;5.75;;;;;;;0.59;100.00;100241.97;4991979;28;20038;-73
2021/12/09 05:58:34;;;;;;;26.77;5.93;;;;;;;0.64;100.00;100242.56;4974028;28;20034;-72
2021/12/09 06:00:59;;;;;;;28.13;6.40;;;;;;;0.67;100.00;100246.75;4974804;28;20034;-72
2021/12/09 06:03:25;;;;;;;26.50;6.07;;;;;;;0.67;100.00;100241.50;4991463;28;20502;-72
2021/12/09 06:05:51;;;;;;;22.50;5.45;;;;;;;0.85;100.00;100247.44;4991572;28;20475;-72
2021/12/09 06:08:17;;;;;;;32.80;7.38;;;;;;;0.93;100.00;100254.88;4991915;28;20142;-72
2021/12/09 06:10:43;;;;;;;28.75;6.00;;;;;;;1.00;100.00;100248.28;4991314;28;20327;-73
2021/12/09 06:13:09;;;;;;;27.40;6.43;;;;;;;1.05;100.00;100249.72;4990737;28;20538;-79
2021/12/09 06:15:34;;;;;;;20.20;5.20;;;;;;;1.07;100.00;100251.41;4987700;28;20379;-72
2021/12/09 06:18:00;;;;;;;28.30;6.10;;;;;;;1.06;100.00;100255.81;4993972;28;20026;-72
2021/12/09 06:20:26;;;;;;;20.48;5.15;;;;;;;1.06;100.00;100258.44;4994765;28;20399;-77
2021/12/09 06:22:51;;;;;;;25.02;5.65;;;;;;;1.01;100.00;100250.81;4995568;28;20398;-73
2021/12/09 06:25:19;;;;;;;19.83;5.22;;;;;;;1.12;100.00;100257.19;4995305;28;20034;-74
2021/12/09 06:27:49;;;;;;;24.65;6.05;;;;;;;1.11;100.00;100263.41;4994592;28;20045;-74
2021/12/09 06:30:16;;;;;;;19.73;5.15;;;;;;;1.18;100.00;100254.19;4995444;28;20053;-73
2021/12/09 06:32:42;;;;;;;22.48;6.13;;;;;;;1.19;100.00;100255.91;4994541;28;20034;-75
2021/12/09 06:35:09;;;;;;;24.25;5.88;;;;;;;1.19;100.00;100253.28;4995417;28;20034;-73
2021/12/09 06:37:40;;;;;;;20.70;5.75;;;;;;;1.17;100.00;100260.41;4994658;28;20033;-72
2021/12/09 06:40:08;;;;;;;25.13;7.32;;;;;;;1.14;100.00;100256.19;4977360;28;20177;-72
2021/12/09 06:42:34;;;;;;;27.80;6.75;;;;;;;1.17;100.00;100253.38;4994005;28;20045;-73
2021/12/09 06:44:59;;;;;;;18.52;5.78;;;;;;;1.16;100.00;100251.69;4995133;28;20030;-72
2021/12/09 06:47:25;;;;;;;27.98;5.70;;;;;;;1.11;100.00;100247.69;4994937;28;20491;-72
2021/12/09 06:49:50;;;;;;;22.13;5.22;;;;;;;1.12;100.00;100246.72;4994319;28;20042;-72
2021/12/09 06:52:16;;;;;;;19.52;6.38;;;;;;;1.10;100.00;100252.06;4977624;28;20482;-72
2021/12/09 06:54:42;;;;;;;21.15;6.15;;;;;;;1.08;100.00;100256.56;4994071;28;20113;-72
2021/12/09 06:57:07;;;;;;;21.05;6.18;;;;;;;1.03;100.00;100251.59;4977400;28;20037;-73
2021/12/09 06:59:33;;;;;;;25.67;5.90;;;;;;;1.05;100.00;100251.50;4976745;28;20034;-73
2021/12/09 07:01:58;;;;;;;20.60;6.88;;;;;;;1.02;100.00;100255.13;4994715;28;20069;-72
2021/12/09 07:04:23;;;;;;;21.90;6.55;;;;;;;0.98;100.00;100256.25;4994772;28;20044;-72
2021/12/09 07:06:49;;;;;;;26.67;6.85;;;;;;;0.97;100.00;100258.97;4993777;28;20038;-72
2021/12/09 07:09:14;;;;;;;23.33;7.20;;;;;;;1.02;100.00;100254.31;4994258;28;20058;-72
2021/12/09 07:11:44;;;;;;;25.75;6.68;;;;;;;1.10;100.00;100262.53;4993645;28;20113;-73
2021/12/09 07:14:10;;;;;;;26.67;6.30;;;;;;;1.14;100.00;100266.66;4994951;28;20066;-72
2021/12/09 07:16:35;;;;;;;29.70;6.47;;;;;;;1.17;100.00;100263.03;4994155;28;20372;-74
2021/12/09 07:19:00;;;;;;;20.88;7.18;;;;;;;1.20;100.00;100276.78;4994569;28;20038;-72
2021/12/09 07:21:26;;;;;;;30.15;7.85;;;;;;;1.24;100.00;100264.34;4994255;28;20034;-71
2021/12/09 07:23:51;;;;;;;28.75;8.35;;;;;;;1.27;100.00;100264.16;4993713;28;20474;-71
2021/12/09 07:26:17;;;;;;;20.17;7.22;;;;;;;1.29;100.00;100274.53;4994050;28;20105;-71
2021/12/09 07:28:42;;;;;;;15.00;7.25;;;;;;;1.33;100.00;100274.25;4992757;28;20046;-71
2021/12/09 07:31:08;;;;;;;29.98;8.68;;;;;;;1.36;100.00;100266.22;4993990;28;20487;-70
2021/12/09 07:33:33;;;;;;;26.05;8.13;;;;;;;1.33;100.00;100276.03;4993914;28;20466;-71
2021/12/09 07:35:58;;;;;;;25.75;7.60;;;;;;;1.32;100.00;100279.59;4993317;28;20042;-71
2021/12/09 07:38:24;;;;;;;26.35;9.18;;;;;;;1.34;100.00;100278.53;4993852;28;20551;-72
2021/12/09 07:40:49;;;;;;;30.73;8.18;;;;;;;1.40;100.00;100275.56;4993442;28;20041;-73
2021/12/09 07:43:15;;;;;;;28.42;7.90;;;;;;;1.44;100.00;100278.00;4976174;28;20456;-70
2021/12/09 07:45:40;;;;;;;23.40;9.02;;;;;;;1.47;100.00;100283.91;4993126;28;20089;-73
2021/12/09 07:48:06;;;;;;;25.50;8.80;;;;;;;1.52;100.00;100284.47;4993953;28;20040;-73
2021/12/09 07:50:32;;;;;;;29.25;10.25;;;;;;;1.61;100.00;100284.81;4993752;28;20065;-72
2021/12/09 07:52:58;;;;;;;28.77;9.93;;;;;;;1.65;100.00;100288.94;4992893;28;20058;-73
2021/12/09 07:55:25;;;;;;;30.60;10.77;;;;;;;1.72;100.00;100288.47;4993491;28;20082;-72
2021/12/09 07:57:51;;;;;;;27.23;11.07;;;;;;;1.78;100.00;100287.25;4992827;28;20470;-72
2021/12/09 08:00:20;;;;;;;27.42;11.13;;;;;;;1.84;100.00;100293.91;4993602;28;20068;-72
2021/12/09 08:02:48;;;;;;;22.40;11.90;;;;;;;1.85;100.00;100293.78;4992898;28;20099;-72
2021/12/09 08:05:15;;;;;;;27.33;11.95;;;;;;;1.94;100.00;100298.47;4993473;28;20041;-72
2021/12/09 08:07:41;;;;;;;28.10;11.20;;;;;;;2.00;100.00;100307.72;4993189;28;20495;-72
2021/12/09 08:10:14;;;;;;;34.95;11.63;;;;;;;2.06;100.00;100309.09;4992761;28;20480;-72
2021/12/09 08:12:40;;;;;;;24.80;10.25;;;;;;;2.13;100.00;100309.56;4993298;28;20027;-72
2021/12/09 08:15:08;;;;;;;24.48;10.20;;;;;;;2.19;100.00;100307.38;4975308;28;20037;-71
2021/12/09 08:20:05;;;;;;;26.65;9.73;;;;;;;2.28;100.00;100308.56;4992570;28;20046;-71
2021/12/09 08:22:31;;;;;;;21.98;9.93;;;;;;;2.34;100.00;100302.94;4993133;28;20081;-70
2021/12/09 08:24:58;;;;;;;24.85;9.63;;;;;;;2.38;100.00;100319.34;4974760;28;20108;-70
2021/12/09 08:27:24;;;;;;;20.30;9.75;;;;;;;2.40;100.00;100320.06;4993091;28;20026;-71
2021/12/09 08:29:50;;;;;;;33.33;10.55;;;;;;;2.42;100.00;100315.59;4992203;28;20096;-73
2021/12/09 08:32:15;;;;;;;24.13;10.82;;;;;;;2.45;100.00;100308.34;4992805;28;20062;-71
2021/12/09 08:34:40;;;;;;;27.15;10.60;;;;;;;2.49;100.00;100311.59;4992805;28;20106;-71
2021/12/09 08:37:06;;;;;;;27.50;10.15;;;;;;;2.52;100.00;100311.38;4992621;28;20674;-71
2021/12/09 08:39:31;;;;;;;35.78;11.02;;;;;;;2.56;100.00;100312.88;4992572;28;20040;-72
2021/12/09 08:41:57;;;;;;;29.15;11.27;;;;;;;2.69;100.00;100310.31;4992443;28;20038;-72
2021/12/09 08:44:22;;;;;;;20.83;10.07;;;;;;;2.77;100.00;100310.63;4992843;28;20117;-71
2021/12/09 08:46:48;;;;;;;29.92;11.13;;;;;;;2.91;100.00;100314.13;4992600;28;20038;-77
2021/12/09 08:49:14;;;;;;;19.98;9.90;;;;;;;2.97;100.00;100311.94;4992745;28;20042;-71
2021/12/09 08:51:40;;;;;;;28.13;10.02;;;;;;;3.04;100.00;100320.25;4992683;28;20030;-71
2021/12/09 08:54:06;;;;;;;25.92;10.35;;;;;;;3.15;100.00;100324.75;4991595;28;20027;-72
2021/12/09 08:56:32;;;;;;;23.80;10.27;;;;;;;3.18;100.00;100327.22;4992621;28;20034;-71
2021/12/09 08:58:58;;;;;;;24.73;10.05;;;;;;;3.12;99.46;100328.47;4992096;28;20077;-71
2021/12/09 09:01:23;;;;;;;23.80;10.00;;;;;;;3.08;99.76;100324.34;4992704;28;20042;-70
2021/12/09 09:03:49;;;;;;;23.10;10.85;;;;;;;3.07;100.00;100321.81;4992453;28;20367;-71
2021/12/09 09:06:15;;;;;;;25.42;10.85;;;;;;;3.04;100.00;100319.41;4991889;28;20534;-71
2021/12/09 09:08:40;;;;;;;27.27;10.43;;;;;;;2.98;100.00;100318.84;4992273;28;20062;-72
2021/12/09 09:11:05;;;;;;;24.52;10.25;;;;;;;2.99;100.00;100322.34;4991967;28;20114;-72
2021/12/09 09:13:31;;;;;;;23.67;11.02;;;;;;;2.97;100.00;100313.69;4992218;28;20034;-71
2021/12/09 09:15:56;;;;;;;27.92;12.23;;;;;;;2.96;100.00;100317.28;4992047;28;20034;-72
2021/12/09 09:18:22;;;;;;;26.77;11.80;;;;;;;2.96;100.00;100312.88;4992298;28;20034;-72
2021/12/09 09:20:48;;;;;;;30.27;13.15;;;;;;;3.04;100.00;100320.25;4992321;28;20038;-71
2021/12/09 09:23:17;;;;;;;25.30;12.93;;;;;;;3.07;100.00;100316.56;4974122;28;20045;-72
2021/12/09 09:25:43;;;;;;;26.33;11.55;;;;;;;3.14;100.00;100333.63;4992107;28;20037;-71
2021/12/09 09:28:11;;;;;;;35.95;12.45;;;;;;;3.14;100.00;100333.63;4991679;28;20050;-71
2021/12/09 09:30:39;;;;;;;25.58;12.45;;;;;;;3.18;100.00;100333.31;4992382;28;20054;-72
2021/12/09 09:33:11;;;;;;;32.38;12.15;;;;;;;3.24;100.00;100331.19;4991637;28;20065;-72
2021/12/09 09:35:38;;;;;;;26.27;12.30;;;;;;;3.25;100.00;100338.97;4992307;28;20033;-72
2021/12/09 09:38:05;;;;;;;27.95;12.07;;;;;;;3.33;100.00;100325.31;4991455;28;20035;-72
2021/12/09 09:40:39;;;;;;;28.70;11.60;;;;;;;3.33;100.00;100334.06;4992363;28;20039;-72
2021/12/09 09:43:14;;;;;;;24.90;11.73;;;;;;;3.31;100.00;100335.94;4991823;28;20093;-72
2021/12/09 09:45:40;;;;;;;23.13;11.50;;;;;;;3.38;100.00;100335.53;4992307;28;20057;-72
2021/12/09 09:48:13;;;;;;;26.48;11.70;;;;;;;3.44;99.79;100340.38;4991629;28;20037;-73
2021/12/09 09:50:40;;;;;;;31.42;11.68;;;;;;;3.49;100.00;100339.09;4992181;28;20042;-73
2021/12/09 09:53:09;;;;;;;29.25;11.57;;;;;;;3.53;99.65;100345.00;4994434;28;20058;-73
2021/12/09 09:55:34;;;;;;;26.58;12.13;;;;;;;3.64;99.78;100346.88;4995924;28;20046;-73
2021/12/09 09:58:00;;;;;;;25.10;11.52;;;;;;;3.60;99.06;100348.88;4995806;28;20026;-77
2021/12/09 10:00:25;;;;;;;28.38;13.25;;;;;;;3.69;99.51;100348.25;4978246;28;20121;-72
2021/12/09 10:02:53;;;;;;;30.50;12.57;;;;;;;3.70;99.20;100346.44;4995928;28;20046;-73
2021/12/09 10:05:25;;;;;;;23.13;11.60;;;;;;;3.73;98.98;100343.59;4994910;28;20077;-72
2021/12/09 10:07:51;;;;;;;32.42;12.32;;;;;;;3.71;98.66;100346.31;4995826;28;20037;-72
2021/12/09 10:10:17;;;;;;;22.95;12.48;;;;;;;3.70;99.17;100347.31;4994884;28;20058;-73
2021/12/09 10:13:06;;;;;;;24.83;12.38;;;;;;;3.75;99.66;100352.25;4995592;28;20034;-73
2021/12/09 10:15:51;;;;;;;26.48;11.52;;;;;;;3.76;99.30;100348.63;4995760;28;20034;-73
2021/12/09 10:18:33;;;;;;;27.15;12.88;;;;;;;3.78;99.99;100349.41;4994881;28;20030;-73
2021/12/09 10:20:59;;;;;;;;;;;;;;;3.79;100.00;100353.72;4995867;28;20031;-72
2021/12/09 10:23:36;;;;;;;19.92;11.80;;;;;;;3.76;99.92;100350.44;4994776;28;19914;-71
2021/12/09 10:26:14;;;;;;;30.58;13.07;;;;;;;3.77;100.00;100337.19;4995197;28;20022;-71
2021/12/09 10:28:44;;;;;;;23.85;12.32;;;;;;;3.84;100.00;100334.97;4995235;28;20041;-72
2021/12/09 10:31:14;;;;;;;19.85;12.27;;;;;;;4.03;100.00;100342.38;4994794;28;20049;-72
2021/12/09 10:34:20;;;;;;;22.17;11.37;;;;;;;4.23;100.00;100335.72;4995285;28;20022;-73
2021/12/09 10:36:54;;;;;;;23.60;11.38;;;;;;;4.35;100.00;100342.72;4995140;28;20036;-71
2021/12/09 10:39:22;;;;;;;22.60;11.15;;;;;;;4.41;99.68;100338.81;4994471;28;20037;-72
2021/12/09 10:41:48;;;;;;;21.23;10.27;;;;;;;4.51;100.00;100339.81;4977716;28;20105;-72
2021/12/09 10:44:14;;;;;;;18.33;10.18;;;;;;;4.56;99.57;100339.47;4994632;28;20026;-72
2021/12/09 10:46:48;;;;;;;19.90;9.52;;;;;;;4.48;98.22;100336.53;4994988;28;20386;-73
2021/12/09 10:49:14;;;;;;;19.00;9.98;;;;;;;4.46;97.65;100327.94;4994258;28;20419;-72
2021/12/09 10:51:45;;;;;;;20.20;9.70;;;;;;;4.41;98.39;100325.63;4995375;28;20471;-72
2021/12/09 10:54:10;;;;;;;22.08;11.52;;;;;;;4.42;98.05;100319.41;4994841;28;20093;-73
2021/12/09 10:56:36;;;;;;;21.77;12.15;;;;;;;4.45;98.04;100318.34;4994851;28;20480;-73
2021/12/09 10:59:02;;;;;;;28.77;10.82;;;;;;;4.46;97.90;100328.75;4977323;28;20031;-71
2021/12/09 11:01:28;;;;;;;22.90;12.27;;;;;;;4.63;98.91;100316.13;4994055;28;20471;-72
2021/12/09 11:04:00;;;;;;;20.63;11.48;;;;;;;4.66;96.88;100311.50;4991993;28;20034;-71
2021/12/09 11:06:39;;;;;;;18.27;11.23;;;;;;;4.69;96.73;100320.97;4994208;28;20158;-73
2021/12/09 11:09:09;;;;;;;20.55;11.95;;;;;;;4.54;96.07;100321.16;4993967;28;20108;-72
2021/12/09 11:11:36;;;;;;;18.35;11.55;;;;;;;4.49;96.83;100315.34;4991851;28;20165;-72
2021/12/09 11:14:11;;;;;;;25.48;13.15;;;;;;;4.48;97.52;100318.97;4993500;28;20034;-73
2021/12/09 11:16:44;;;;;;;22.80;13.05;;;;;;;4.39;97.13;100323.09;4993279;28;20030;-72
2021/12/09 11:19:16;;;;;;;19.85;12.95;;;;;;;4.33;97.99;100327.97;4993694;28;20383;-72
2021/12/09 11:21:53;;;;;;;27.50;13.57;;;;;;;4.26;98.61;100324.94;4993596;28;20113;-72
2021/12/09 11:24:21;;;;;;;26.13;11.73;;;;;;;4.27;99.02;100313.47;4992466;28;20038;-72